Time;durP1;ratioP1;P1;durP2;ratioP2;P2;SDS_P1;SDS_P2;PMS_P1;PMS_P2;Temp;Humidity;BMP_temperature;BMP_pressure;BME280_temperature;BME280_humidity;BME280_pressure;Samples;Min_cycle;Max_cycle;Signal;HPM_P1;HPM_P2
2022/03/17 00:00:30;;;;;;;19.30;17.70;;;;;;;8.27;67.83;101388.38;5030185;28;20316;-81
2022/03/17 00:02:56;;;;;;;19.27;17.23;;;;;;;8.25;67.65;101390.09;5030990;28;20248;-81
2022/03/17 00:05:23;;;;;;;18.87;16.87;;;;;;;8.20;67.59;101395.25;5036891;28;20208;-81
2022/03/17 00:07:49;;;;;;;17.87;16.37;;;;;;;8.21;67.70;101398.75;5036859;28;20206;-81
2022/03/17 00:10:17;;;;;;;18.43;16.83;;;;;;;8.17;68.19;101397.84;5037524;28;20213;-82
2022/03/17 00:12:47;;;;;;;18.30;16.73;;;;;;;8.16;67.79;101391.75;5037081;28;20227;-81
2022/03/17 00:15:13;;;;;;;18.50;16.80;;;;;;;8.18;67.80;101383.97;5036187;28;20732;-82
2022/03/17 00:17:41;;;;;;;19.73;17.70;;;;;;;8.12;68.54;101374.41;5037235;28;20228;-82
2022/03/17 00:20:10;;;;;;;18.53;17.13;;;;;;;8.20;67.38;101378.78;5037120;28;20292;-82
2022/03/17 00:22:37;;;;;;;19.57;17.80;;;;;;;8.16;67.90;101394.38;5036736;28;20207;-81
2022/03/17 00:25:05;;;;;;;18.97;17.33;;;;;;;8.22;67.88;101390.94;5036363;28;20208;-82
2022/03/17 00:27:31;;;;;;;18.77;17.27;;;;;;;8.24;67.93;101398.75;5036704;28;20240;-81
2022/03/17 00:29:59;;;;;;;19.17;17.53;;;;;;;8.23;67.81;101397.88;5032379;28;20202;-82
2022/03/17 00:32:26;;;;;;;19.73;18.03;;;;;;;8.27;67.70;101410.06;5028121;28;20669;-82
2022/03/17 00:37:37;;;;;;;19.50;17.80;;;;;;;8.25;68.08;101406.56;5037089;28;20290;-82
2022/03/17 00:40:05;;;;;;;18.33;16.83;;;;;;;8.22;67.88;101400.47;5036886;28;20204;-83
2022/03/17 00:42:31;;;;;;;18.97;17.17;;;;;;;8.25;67.05;101397.91;5037172;28;20223;-81
2022/03/17 00:44:59;;;;;;;19.10;17.50;;;;;;;8.25;67.89;101393.56;5035993;28;20210;-82
2022/03/17 00:47:25;;;;;;;18.13;16.63;;;;;;;8.24;67.42;101388.34;5036081;28;20230;-81
2022/03/17 00:49:52;;;;;;;18.70;17.13;;;;;;;8.25;67.46;101393.56;5036934;28;20203;-81
2022/03/17 00:52:20;;;;;;;19.13;17.53;;;;;;;8.24;67.66;101393.56;5044511;28;20199;-82
2022/03/17 00:54:47;;;;;;;18.37;16.30;;;;;;;8.25;68.04;101382.31;5044441;28;20208;-82
2022/03/17 00:57:14;;;;;;;18.93;17.40;;;;;;;8.19;67.85;101379.66;5044824;28;20818;-81
2022/03/17 00:59:41;;;;;;;17.77;16.33;;;;;;;8.21;67.41;101385.75;5035620;28;20248;-80
2022/03/17 01:02:09;;;;;;;20.43;18.37;;;;;;;8.16;67.52;101383.09;5023930;28;20234;-81
2022/03/17 01:04:36;;;;;;;18.30;16.60;;;;;;;8.14;68.04;101375.28;5015748;28;20568;-81
2022/03/17 01:07:03;;;;;;;19.30;17.43;;;;;;;8.13;68.17;101380.50;5015919;28;20256;-82
2022/03/17 01:09:29;;;;;;;18.47;16.97;;;;;;;8.07;68.45;101377.84;5016056;28;20273;-81
2022/03/17 01:11:56;;;;;;;17.13;15.73;;;;;;;8.11;67.72;101370.06;5015782;28;20675;-81
2022/03/17 01:14:23;;;;;;;18.87;17.20;;;;;;;8.11;68.28;101384.81;5015537;28;20208;-81
2022/03/17 01:16:50;;;;;;;18.07;16.60;;;;;;;8.12;68.11;101384.81;5015652;28;20220;-81
2022/03/17 01:19:19;;;;;;;18.40;16.80;;;;;;;8.11;67.97;101382.22;5015811;28;20246;-81
2022/03/17 01:21:45;;;;;;;19.37;17.67;;;;;;;8.10;68.71;101372.66;5015843;28;20224;-81
2022/03/17 01:24:12;;;;;;;18.57;17.03;;;;;;;8.09;68.51;101379.59;5015511;28;20660;-82
2022/03/17 01:26:38;;;;;;;18.50;16.90;;;;;;;8.04;68.39;101389.09;5015684;28;20236;-81
2022/03/17 01:29:05;;;;;;;17.60;16.10;;;;;;;8.00;69.34;101381.25;5014773;28;20206;-82
2022/03/17 01:31:31;;;;;;;18.10;16.60;;;;;;;7.95;69.27;101370.84;5025998;28;20258;-81
2022/03/17 01:33:58;;;;;;;17.43;16.03;;;;;;;7.90;69.51;101376.00;5034666;28;20208;-81
2022/03/17 01:36:26;;;;;;;19.23;17.53;;;;;;;7.82;70.39;101343.03;5034933;28;20220;-81
2022/03/17 01:38:52;;;;;;;18.50;16.90;;;;;;;7.76;70.39;101331.72;5035015;28;20205;-81
2022/03/17 01:41:18;;;;;;;20.00;18.23;;;;;;;7.72;70.17;101323.88;5034922;28;20232;-82
2022/03/17 01:43:45;;;;;;;17.40;16.00;;;;;;;7.66;70.26;101316.06;5034777;28;20264;-82
2022/03/17 01:46:14;;;;;;;18.80;17.20;;;;;;;7.55;71.38;101302.97;5034714;28;20229;-80
2022/03/17 01:48:40;;;;;;;18.20;16.70;;;;;;;7.47;71.39;101289.06;5035155;28;20209;-81
2022/03/17 01:51:07;;;;;;;19.13;17.53;;;;;;;7.35;72.25;101277.75;5035099;28;20212;-79
2022/03/17 01:53:35;;;;;;;18.17;16.67;;;;;;;7.31;72.94;101262.09;5034329;28;20696;-81
2022/03/17 01:56:03;;;;;;;19.70;17.90;;;;;;;7.21;72.87;101242.13;5034285;28;20226;-80
2022/03/17 01:58:31;;;;;;;19.53;17.83;;;;;;;7.26;72.87;101225.72;5034494;28;20218;-82
2022/03/17 02:00:57;;;;;;;18.73;17.10;;;;;;;7.33;72.21;101234.41;5023993;28;20706;-81
2022/03/17 02:03:27;;;;;;;19.73;17.80;;;;;;;7.41;72.22;101242.25;5031857;28;20283;-82
2022/03/17 02:05:53;;;;;;;18.77;17.17;;;;;;;7.47;72.05;101244.91;5035066;28;20281;-81
2022/03/17 02:08:20;;;;;;;18.63;17.00;;;;;;;7.49;72.07;101251.88;5035073;28;20257;-80
2022/03/17 02:13:31;;;;;;;19.63;17.93;;;;;;;7.42;71.95;101229.28;5003502;28;20222;-81
2022/03/17 02:16:02;;;;;;;20.50;18.70;;;;;;;7.48;71.88;101244.06;5034347;28;20287;-80
2022/03/17 02:18:28;;;;;;;20.40;18.53;;;;;;;7.47;71.77;101239.69;5034180;28;20299;-82
2022/03/17 02:20:57;;;;;;;19.63;17.93;;;;;;;7.44;72.09;101224.97;5034557;28;20272;-82
2022/03/17 02:26:09;;;;;;;20.50;18.80;;;;;;;7.41;72.58;101229.28;5034326;28;20241;-82
2022/03/17 02:28:36;;;;;;;21.70;19.87;;;;;;;7.43;72.78;101230.16;5033791;28;20208;-80
2022/03/17 02:31:02;;;;;;;22.43;20.07;;;;;;;7.45;72.55;101223.22;5022803;28;20206;-82
2022/03/17 02:33:29;;;;;;;21.57;19.47;;;;;;;7.40;73.16;101212.81;5032081;28;20202;-82
2022/03/17 02:35:55;;;;;;;20.80;19.00;;;;;;;7.44;72.83;101203.34;5034519;28;20273;-81
2022/03/17 02:38:23;;;;;;;21.43;19.53;;;;;;;7.42;73.24;101203.31;5034202;28;20212;-80
2022/03/17 02:40:53;;;;;;;21.33;19.30;;;;;;;7.42;73.64;101190.31;5034190;28;20206;-82
2022/03/17 02:43:20;;;;;;;21.30;19.40;;;;;;;7.36;73.74;101196.34;5033832;28;20673;-81
2022/03/17 02:45:47;;;;;;;19.77;18.07;;;;;;;7.39;73.01;101198.09;5033738;28;20241;-82
2022/03/17 02:48:13;;;;;;;20.43;18.33;;;;;;;7.37;73.33;101194.63;5033937;28;20669;-82
2022/03/17 02:50:40;;;;;;;19.20;17.50;;;;;;;7.39;73.50;101187.69;5037932;28;20205;-82
2022/03/17 02:53:07;;;;;;;20.10;18.40;;;;;;;7.38;73.07;101182.50;5037569;28;20254;-81
2022/03/17 02:55:34;;;;;;;20.80;18.97;;;;;;;7.39;73.13;101184.25;5037100;28;20206;-82
2022/03/17 02:58:02;;;;;;;20.50;18.70;;;;;;;7.35;73.46;101173.84;5037720;28;20236;-82
2022/03/17 03:00:29;;;;;;;19.57;17.97;;;;;;;7.41;74.18;101170.41;5030252;28;20655;-82
2022/03/17 03:02:55;;;;;;;22.40;20.30;;;;;;;7.46;73.30;101178.22;5030908;28;20234;-81
2022/03/17 03:05:22;;;;;;;23.60;21.30;;;;;;;7.44;73.46;101193.81;5036359;28;20677;-81
2022/03/17 03:07:48;;;;;;;20.03;18.33;;;;;;;7.44;74.02;101175.63;5037780;28;20298;-82
2022/03/17 03:10:15;;;;;;;21.63;19.73;;;;;;;7.38;74.02;101167.78;5036840;28;20217;-81
2022/03/17 03:12:41;;;;;;;21.23;19.23;;;;;;;7.41;73.03;101161.75;5037261;28;20207;-81
2022/03/17 03:15:09;;;;;;;22.20;20.23;;;;;;;7.36;74.43;101162.59;5036473;28;20214;-82
2022/03/17 03:17:36;;;;;;;21.63;19.73;;;;;;;7.35;73.95;101160.88;5036959;28;20591;-81
2022/03/17 03:20:03;;;;;;;23.27;20.97;;;;;;;7.30;73.83;101157.34;5036955;28;20259;-81
2022/03/17 03:22:36;;;;;;;21.20;19.40;;;;;;;7.30;74.02;101148.72;5037147;28;20230;-81
2022/03/17 03:25:03;;;;;;;22.67;20.67;;;;;;;7.31;74.49;101135.75;5036589;28;20214;-81
2022/03/17 03:27:30;;;;;;;21.47;19.67;;;;;;;7.29;74.03;101146.94;5036862;28;20241;-81
2022/03/17 03:29:58;;;;;;;21.53;19.73;;;;;;;7.31;74.07;101142.63;5031517;28;20210;-81
2022/03/17 03:32:26;;;;;;;20.23;18.53;;;;;;;7.35;74.28;101142.69;5028850;28;20200;-81
2022/03/17 03:34:53;;;;;;;22.13;20.13;;;;;;;7.29;74.06;101133.97;5036872;28;20234;-81
2022/03/17 03:37:25;;;;;;;22.93;20.80;;;;;;;7.26;73.52;101146.94;5038066;28;20231;-80
2022/03/17 03:39:53;;;;;;;21.53;19.73;;;;;;;7.29;74.26;101142.63;5037233;28;20207;-81
2022/03/17 03:42:20;;;;;;;21.43;19.33;;;;;;;7.30;73.77;101148.72;5037178;28;20237;-81
2022/03/17 03:44:47;;;;;;;22.30;20.00;;;;;;;7.31;73.48;101156.50;5039132;28;20751;-80
2022/03/17 03:47:14;;;;;;;21.20;19.27;;;;;;;7.28;74.24;101148.69;5048669;28;20264;-80
2022/03/17 03:49:42;;;;;;;20.90;19.20;;;;;;;7.33;74.13;101154.78;5049420;28;20241;-80
2022/03/17 03:52:10;;;;;;;22.00;20.00;;;;;;;7.30;73.64;101151.31;5047864;28;20202;-81
2022/03/17 03:54:37;;;;;;;22.87;20.33;;;;;;;7.23;74.12;101137.38;5042696;28;20200;-80
2022/03/17 03:57:04;;;;;;;22.53;20.33;;;;;;;7.24;73.87;101128.75;5036991;28;20256;-81
2022/03/17 03:59:31;;;;;;;21.80;19.80;;;;;;;7.25;74.29;101124.44;5032153;28;20207;-81
2022/03/17 04:02:01;;;;;;;21.90;19.70;;;;;;;7.21;75.07;101122.66;5027844;28;20221;-82
2022/03/17 04:04:28;;;;;;;22.67;20.23;;;;;;;7.20;74.41;101116.63;5036871;28;20265;-80
2022/03/17 04:06:58;;;;;;;21.67;19.77;;;;;;;7.21;74.91;101117.47;5037242;28;20277;-82
2022/03/17 04:09:28;;;;;;;21.77;19.87;;;;;;;7.14;75.51;101099.28;5036858;28;20718;-82
2022/03/17 04:11:56;;;;;;;23.43;21.23;;;;;;;7.15;75.54;101084.56;5037083;28;20206;-82
2022/03/17 04:14:24;;;;;;;22.17;19.93;;;;;;;7.19;75.82;101082.84;5035987;28;20275;-81
2022/03/17 04:16:50;;;;;;;21.57;19.60;;;;;;;7.24;75.41;101102.78;5036592;28;20231;-81
2022/03/17 04:19:17;;;;;;;23.87;21.57;;;;;;;7.20;75.25;101089.78;5037332;28;20259;-82
2022/03/17 04:21:44;;;;;;;22.03;20.07;;;;;;;7.20;74.97;101090.66;5036978;28;20234;-81
2022/03/17 04:24:12;;;;;;;23.10;20.77;;;;;;;7.18;74.84;101092.38;5036005;28;20297;-81
2022/03/17 04:26:39;;;;;;;22.90;20.53;;;;;;;7.18;75.78;101088.91;5036384;28;20240;-82
2022/03/17 04:29:06;;;;;;;20.40;18.50;;;;;;;7.08;76.09;101072.44;5033227;28;20215;-82
2022/03/17 04:31:33;;;;;;;21.47;19.57;;;;;;;7.07;76.66;101058.56;5027443;28;20299;-82
2022/03/17 04:34:00;;;;;;;24.77;22.40;;;;;;;7.08;75.66;101068.09;5035940;28;20211;-82
2022/03/17 04:36:26;;;;;;;23.80;21.30;;;;;;;7.12;76.01;101074.19;5036637;28;20230;-82
2022/03/17 04:38:53;;;;;;;25.30;22.77;;;;;;;7.21;74.92;101091.53;5036234;28;20276;-82
2022/03/17 04:41:21;;;;;;;24.87;22.43;;;;;;;7.25;75.31;101101.06;5036575;28;20206;-82
2022/03/17 04:43:47;;;;;;;26.60;23.93;;;;;;;7.28;74.76;101107.13;5035739;28;20277;-82
2022/03/17 04:46:13;;;;;;;26.40;23.70;;;;;;;7.33;75.08;101102.84;5036049;28;20262;-82
2022/03/17 04:48:40;;;;;;;24.87;22.43;;;;;;;7.37;75.23;101116.69;5036520;28;20202;-82
2022/03/17 04:51:07;;;;;;;25.63;23.07;;;;;;;7.38;75.27;101108.06;5036045;28;20220;-82
2022/03/17 04:53:34;;;;;;;26.63;23.97;;;;;;;7.38;75.77;101104.59;5035661;28;20225;-82
2022/03/17 04:56:02;;;;;;;27.03;24.30;;;;;;;7.40;75.12;101101.16;5035740;28;20640;-81
2022/03/17 04:58:32;;;;;;;25.80;23.27;;;;;;;7.35;75.54;101102.84;5036056;28;20210;-81
2022/03/17 05:00:59;;;;;;;27.53;24.53;;;;;;;7.38;75.65;101092.47;5024909;28;20211;-81
2022/03/17 05:03:26;;;;;;;27.63;23.93;;;;;;;7.19;75.83;101093.25;5033587;28;20710;-82
2022/03/17 05:05:52;;;;;;;27.03;24.17;;;;;;;7.19;75.29;101096.69;5035745;28;20318;-81
2022/03/17 05:08:19;;;;;;;26.13;23.67;;;;;;;7.08;74.83;101095.78;5035661;28;20220;-81
2022/03/17 05:10:47;;;;;;;26.93;24.20;;;;;;;7.23;74.71;101118.34;5035267;28;20214;-81
2022/03/17 05:13:15;;;;;;;28.67;24.97;;;;;;;7.34;74.93;101127.94;5035113;28;20205;-81
2022/03/17 05:15:43;;;;;;;25.67;23.27;;;;;;;7.42;75.49;101121.94;5034660;28;20210;-82
2022/03/17 05:18:10;;;;;;;26.43;23.80;;;;;;;7.40;76.00;101119.31;5035227;28;20282;-82
2022/03/17 05:20:38;;;;;;;26.73;24.30;;;;;;;7.39;75.37;101121.91;5036328;28;20207;-81
2022/03/17 05:23:05;;;;;;;28.17;25.27;;;;;;;7.43;74.84;101136.63;5037434;28;20235;-81
2022/03/17 05:25:32;;;;;;;27.30;24.37;;;;;;;7.52;73.42;101168.72;5034570;28;20242;-79
2022/03/17 05:27:59;;;;;;;26.33;23.80;;;;;;;7.67;71.74;101203.44;5036643;28;20226;-81
2022/03/17 05:30:26;;;;;;;27.50;24.80;;;;;;;7.78;71.89;101232.09;5028396;28;20213;-80
2022/03/17 05:32:54;;;;;;;27.13;23.90;;;;;;;7.85;71.81;101245.16;5015336;28;20634;-81
2022/03/17 05:35:21;;;;;;;28.20;25.13;;;;;;;7.95;70.19;101285.06;5014746;28;20207;-82
2022/03/17 05:37:48;;;;;;;28.33;25.20;;;;;;;8.09;69.45;101308.53;5015233;28;20300;-80
2022/03/17 05:40:17;;;;;;;26.93;23.87;;;;;;;8.18;68.11;101337.16;5014435;28;20620;-82
2022/03/17 05:42:45;;;;;;;28.03;25.23;;;;;;;8.25;68.58;101349.34;5015351;28;20246;-81
2022/03/17 05:45:12;;;;;;;27.83;24.90;;;;;;;8.29;68.57;101353.72;5014105;28;20206;-81
2022/03/17 05:47:40;;;;;;;27.23;24.37;;;;;;;8.35;68.28;101360.69;5014906;28;20236;-81
2022/03/17 05:50:10;;;;;;;26.70;24.03;;;;;;;8.37;67.22;101371.97;5014828;28;20343;-81
2022/03/17 05:52:38;;;;;;;29.37;25.97;;;;;;;8.44;67.00;101401.50;5015012;28;20211;-82
2022/03/17 05:55:05;;;;;;;29.10;26.00;;;;;;;8.48;67.65;101392.84;5014604;28;20211;-81
2022/03/17 05:57:33;;;;;;;27.63;24.93;;;;;;;8.48;67.41;101385.03;5015113;28;20231;-80
2022/03/17 06:00:00;;;;;;;27.13;24.60;;;;;;;8.46;66.95;101404.97;5019977;28;20211;-79
2022/03/17 06:02:26;;;;;;;27.27;24.47;;;;;;;8.47;66.80;101420.59;5026326;28;20220;-81
2022/03/17 06:04:52;;;;;;;28.37;25.57;;;;;;;8.52;66.96;101421.50;5034340;28;20207;-81
2022/03/17 06:07:21;;;;;;;27.13;24.13;;;;;;;8.51;67.74;101411.09;5034557;28;20226;-81
2022/03/17 06:09:47;;;;;;;27.23;24.70;;;;;;;8.51;67.73;101400.69;5034287;28;20203;-81
2022/03/17 06:12:15;;;;;;;27.37;24.67;;;;;;;8.55;67.06;101418.06;5034151;28;20273;-80
2022/03/17 06:14:42;;;;;;;27.80;25.10;;;;;;;8.53;65.42;101441.44;5034008;28;20348;-80
2022/03/17 06:17:09;;;;;;;28.80;25.97;;;;;;;8.59;66.27;101455.38;5034162;28;20774;-80
2022/03/17 06:19:35;;;;;;;28.97;26.07;;;;;;;8.63;66.45;101444.97;5034316;28;20228;-81
2022/03/17 06:22:02;;;;;;;28.47;25.73;;;;;;;8.62;66.32;101452.78;5034342;28;20240;-79
2022/03/17 06:24:29;;;;;;;28.07;25.40;;;;;;;8.66;66.37;101459.72;5037730;28;20266;-80
2022/03/17 06:26:56;;;;;;;27.53;24.97;;;;;;;8.71;66.53;101468.44;5037634;28;20238;-81
2022/03/17 06:29:22;;;;;;;27.87;25.00;;;;;;;8.76;67.17;101445.94;5033333;28;20212;-80
2022/03/17 06:31:49;;;;;;;28.87;25.97;;;;;;;8.72;66.29;101464.97;5029408;28;20609;-81
2022/03/17 06:34:15;;;;;;;28.47;25.50;;;;;;;8.81;66.66;101470.22;5037483;28;20211;-81
2022/03/17 06:36:41;;;;;;;27.70;25.00;;;;;;;8.83;65.84;101476.31;5036844;28;20222;-83
2022/03/17 06:39:08;;;;;;;28.33;25.53;;;;;;;8.88;66.31;101484.13;5010302;28;20738;-82
2022/03/17 06:41:35;;;;;;;26.93;24.60;;;;;;;8.94;65.53;101486.81;5007538;28;20216;-81
2022/03/17 06:44:02;;;;;;;28.27;25.97;;;;;;;8.88;65.80;101489.34;5006418;28;20265;-81
2022/03/17 06:46:29;;;;;;;28.47;25.57;;;;;;;8.94;66.52;101479.00;5006563;28;20222;-79
2022/03/17 06:48:56;;;;;;;26.30;24.03;;;;;;;8.97;66.51;101485.94;5006996;28;20210;-81
2022/03/17 06:51:22;;;;;;;28.57;25.90;;;;;;;8.96;66.61;101466.84;5007789;28;20200;-83
2022/03/17 06:53:48;;;;;;;29.43;26.60;;;;;;;8.98;66.60;101475.53;5006546;28;20194;-81
2022/03/17 06:56:15;;;;;;;28.30;25.37;;;;;;;8.98;67.34;101454.69;5007130;28;20274;-82
2022/03/17 06:58:42;;;;;;;28.53;25.70;;;;;;;9.00;67.01;101445.16;5007723;28;20262;-82
2022/03/17 07:01:09;;;;;;;28.53;25.63;;;;;;;9.00;66.96;101459.88;5017323;28;20201;-82
2022/03/17 07:03:35;;;;;;;29.03;26.20;;;;;;;9.01;66.48;101485.09;5036743;28;20225;-80
2022/03/17 07:06:01;;;;;;;28.30;24.80;;;;;;;8.94;63.86;101536.28;5037633;28;20259;-81
2022/03/17 07:08:28;;;;;;;29.20;26.30;;;;;;;9.02;63.53;101585.78;5014424;28;20758;-82
2022/03/17 07:11:00;;;;;;;27.23;24.67;;;;;;;9.11;65.42;101544.16;5007510;28;20682;-81
2022/03/17 07:13:26;;;;;;;30.63;24.37;;;;;;;9.11;65.11;101545.03;5014131;28;20226;-80
2022/03/17 07:15:57;;;;;;;27.57;24.87;;;;;;;9.15;63.87;101562.41;5016654;28;20240;-81
2022/03/17 07:18:23;;;;;;;27.20;24.53;;;;;;;9.24;63.58;101579.84;5017767;28;20209;-82
2022/03/17 07:20:50;;;;;;;27.73;25.13;;;;;;;9.24;62.58;101585.03;5017756;28;20208;-80
2022/03/17 07:23:24;;;;;;;28.43;25.63;;;;;;;9.20;62.52;101626.72;5017567;28;20224;-81
2022/03/17 07:25:50;;;;;;;28.57;25.63;;;;;;;9.26;62.93;101629.34;5016811;28;20272;-81
2022/03/17 07:28:18;;;;;;;27.77;25.27;;;;;;;9.30;63.20;101610.25;5006978;28;20204;-80
2022/03/17 07:30:45;;;;;;;28.33;25.63;;;;;;;9.37;63.41;101609.41;5015406;28;20237;-83
2022/03/17 07:33:12;;;;;;;28.87;25.80;;;;;;;9.33;63.06;101607.66;5009435;28;20221;-80
2022/03/17 07:35:39;;;;;;;28.77;25.93;;;;;;;9.40;62.81;101619.00;5008431;28;20260;-82
2022/03/17 07:38:05;;;;;;;27.93;24.93;;;;;;;9.34;63.09;101593.78;5007030;28;20205;-82
2022/03/17 07:40:32;;;;;;;30.13;27.00;;;;;;;9.35;63.05;101631.97;5007504;28;20208;-80
2022/03/17 07:43:00;;;;;;;28.33;25.80;;;;;;;9.41;63.64;101616.38;5008239;28;20285;-82
2022/03/17 07:45:26;;;;;;;28.30;25.47;;;;;;;9.41;62.41;101613.78;5008456;28;20297;-81
2022/03/17 07:47:53;;;;;;;29.10;26.13;;;;;;;9.45;62.74;101622.47;5007955;28;20201;-81
2022/03/17 07:50:21;;;;;;;27.80;25.17;;;;;;;9.46;63.75;101621.63;5006973;28;20244;-81
2022/03/17 07:52:47;;;;;;;30.00;27.03;;;;;;;9.48;63.04;101631.19;5007292;28;20203;-81
2022/03/17 07:55:14;;;;;;;27.77;25.07;;;;;;;9.45;61.90;101649.41;5006439;28;20205;-80
2022/03/17 07:57:41;;;;;;;28.43;25.67;;;;;;;9.53;62.32;101652.06;5008414;28;20243;-80
2022/03/17 08:00:11;;;;;;;28.13;25.23;;;;;;;9.50;62.05;101659.88;5008345;28;20207;-82
2022/03/17 08:02:37;;;;;;;28.53;25.53;;;;;;;9.54;62.60;101652.06;5010287;28;20200;-81
2022/03/17 08:05:05;;;;;;;28.00;25.20;;;;;;;9.56;62.29;101664.25;5006063;28;20205;-80
2022/03/17 08:07:33;;;;;;;28.77;25.93;;;;;;;9.58;62.60;101652.09;5009509;28;20222;-81
2022/03/17 08:10:00;;;;;;;28.43;25.60;;;;;;;9.58;62.08;101667.75;5010566;28;20220;-81
2022/03/17 08:12:27;;;;;;;26.80;24.30;;;;;;;9.57;61.93;101677.28;5010946;28;20244;-81
2022/03/17 08:14:54;;;;;;;28.60;26.00;;;;;;;9.59;62.82;101662.50;5009923;28;20565;-81
2022/03/17 08:17:20;;;;;;;28.33;25.37;;;;;;;9.65;63.02;101649.53;5009803;28;20217;-81
2022/03/17 08:19:47;;;;;;;28.53;25.60;;;;;;;9.53;61.55;101681.63;5015667;28;20276;-81
2022/03/17 08:22:13;;;;;;;28.47;25.60;;;;;;;9.50;61.23;101698.97;5016134;28;20197;-80
2022/03/17 08:24:41;;;;;;;28.57;25.43;;;;;;;9.49;61.94;101705.94;5016882;28;20230;-81
2022/03/17 08:27:07;;;;;;;27.93;25.03;;;;;;;9.47;60.61;101720.66;5014982;28;20234;-80
2022/03/17 08:29:33;;;;;;;28.97;26.20;;;;;;;9.53;61.89;101710.28;5018348;28;20215;-80
2022/03/17 08:32:00;;;;;;;26.93;24.20;;;;;;;9.58;61.93;101705.09;5013362;28;20207;-81
2022/03/17 08:34:27;;;;;;;28.40;25.30;;;;;;;9.59;61.44;101703.34;5006729;28;20542;-81
2022/03/17 08:36:54;;;;;;;28.37;25.53;;;;;;;9.56;61.62;101709.44;5007686;28;20713;-81
2022/03/17 08:39:20;;;;;;;26.40;24.00;;;;;;;9.55;61.60;101697.25;5008585;28;20222;-81
2022/03/17 08:41:48;;;;;;;27.57;24.83;;;;;;;9.53;61.26;101718.13;5006459;28;20198;-80
2022/03/17 08:44:14;;;;;;;27.60;24.87;;;;;;;9.61;61.71;101709.44;5006770;28;20710;-82
2022/03/17 08:49:25;;;;;;;29.53;25.57;;;;;;;9.62;61.41;101732.94;5007932;28;20242;-81
2022/03/17 08:51:53;;;;;;;27.70;24.77;;;;;;;9.60;61.25;101742.47;5006813;28;20204;-79
2022/03/17 08:54:22;;;;;;;26.33;23.83;;;;;;;9.58;60.69;101741.59;5006595;28;20556;-81
2022/03/17 08:56:50;;;;;;;28.30;25.37;;;;;;;9.61;61.63;101744.19;5006294;28;20230;-81
2022/03/17 08:59:16;;;;;;;26.20;23.80;;;;;;;9.55;60.77;101757.19;5006510;28;20230;-81
2022/03/17 09:01:43;;;;;;;26.93;24.33;;;;;;;9.62;61.35;101765.94;5012157;28;20233;-81
2022/03/17 09:04:11;;;;;;;27.00;24.30;;;;;;;9.58;60.43;101785.03;5006399;28;20872;-81
2022/03/17 09:06:38;;;;;;;27.80;25.23;;;;;;;9.63;61.18;101772.91;5005650;28;20255;-81
2022/03/17 09:09:05;;;;;;;28.03;25.43;;;;;;;9.59;60.21;101792.84;5007896;28;20602;-81
2022/03/17 09:11:32;;;;;;;26.57;24.23;;;;;;;9.60;61.03;101778.09;5005978;28;20205;-81
2022/03/17 09:14:00;;;;;;;28.80;25.80;;;;;;;9.66;61.78;101776.41;5005824;28;20208;-81
2022/03/17 09:16:26;;;;;;;27.13;24.50;;;;;;;9.70;61.42;101767.72;5004507;28;20260;-83
2022/03/17 09:18:53;;;;;;;26.73;24.10;;;;;;;9.65;61.38;101779.88;5005576;28;20214;-80
2022/03/17 09:21:19;;;;;;;28.10;25.27;;;;;;;9.64;62.05;101767.69;5006035;28;20225;-81
2022/03/17 09:23:45;;;;;;;27.83;24.97;;;;;;;9.68;62.17;101756.41;5004602;28;20220;-82
2022/03/17 09:26:12;;;;;;;28.03;25.17;;;;;;;9.69;62.54;101755.56;5006723;28;20228;-81
2022/03/17 09:28:38;;;;;;;27.30;24.90;;;;;;;9.59;62.47;101751.13;5006584;28;20209;-81
2022/03/17 09:31:07;;;;;;;28.17;25.57;;;;;;;9.54;62.75;101745.91;5009208;28;20231;-81
2022/03/17 09:33:33;;;;;;;27.27;24.67;;;;;;;9.62;63.55;101729.47;5007441;28;20206;-81
2022/03/17 09:36:00;;;;;;;28.77;25.73;;;;;;;9.50;63.79;101725.03;5004631;28;20222;-81
2022/03/17 09:38:27;;;;;;;27.30;24.80;;;;;;;9.52;64.13;101718.97;5004157;28;20257;-80
2022/03/17 09:40:54;;;;;;;28.10;25.43;;;;;;;9.44;64.55;101725.00;5005325;28;20818;-79
2022/03/17 09:43:21;;;;;;;28.67;25.77;;;;;;;9.31;65.17;101711.88;5006325;28;20202;-83
2022/03/17 09:45:51;;;;;;;27.80;25.13;;;;;;;9.42;66.76;101680.69;5003865;28;20218;-82
2022/03/17 09:48:20;;;;;;;29.83;26.93;;;;;;;9.43;67.70;101665.91;5004867;28;20255;-80
2022/03/17 09:50:53;;;;;;;29.83;26.90;;;;;;;9.42;68.31;101627.69;4997882;28;20617;-81
2022/03/17 09:53:20;;;;;;;29.77;26.87;;;;;;;9.37;69.71;101585.97;4995612;28;20245;-82
2022/03/17 09:55:46;;;;;;;30.17;27.07;;;;;;;9.39;71.24;101563.38;4995088;28;20261;-82
2022/03/17 09:58:12;;;;;;;31.50;27.90;;;;;;;9.39;72.71;101503.44;5002669;28;20201;-81
2022/03/17 10:00:53;;;;;;;32.10;28.83;;;;;;;9.42;73.02;101482.63;5012364;28;20199;-82
2022/03/17 10:03:25;;;;;;;31.67;28.67;;;;;;;9.21;76.06;101425.25;5001079;28;20217;-81
2022/03/17 10:05:53;;;;;;;32.90;29.40;;;;;;;9.10;78.83;101347.94;4994961;28;20233;-79
2022/03/17 10:08:21;;;;;;;32.57;29.23;;;;;;;8.99;77.63;101356.59;4995444;28;20204;-81
2022/03/17 10:10:48;;;;;;;32.37;29.00;;;;;;;8.91;77.49;101356.59;4995754;28;20206;-81
2022/03/17 10:13:17;;;;;;;34.33;29.80;;;;;;;8.89;79.77;101307.09;4995911;28;20214;-80
2022/03/17 10:15:45;;;;;;;33.40;29.93;;;;;;;8.83;79.09;101312.31;4995034;28;20272;-80
2022/03/17 10:18:23;;;;;;;34.87;29.90;;;;;;;8.88;79.42;101317.50;4995354;28;20206;-81
2022/03/17 10:21:05;;;;;;;36.03;31.10;;;;;;;8.85;80.13;101289.75;4995916;28;20210;-82
2022/03/17 10:23:32;;;;;;;36.33;30.70;;;;;;;8.86;81.11;101274.97;4995152;28;20204;-78
2022/03/17 10:25:58;;;;;;;32.63;28.83;;;;;;;8.85;81.63;101268.06;4995082;28;20240;-80
2022/03/17 10:28:30;;;;;;;34.63;30.30;;;;;;;8.78;83.81;101211.63;4995512;28;20211;-82
2022/03/17 10:31:04;;;;;;;38.07;31.93;;;;;;;8.79;82.19;101249.81;5021995;28;20212;-82
2022/03/17 10:33:32;;;;;;;39.47;30.90;;;;;;;8.72;82.47;101255.03;5033222;28;20205;-80
2022/03/17 10:36:14;;;;;;;34.37;30.73;;;;;;;8.84;82.04;101275.00;5034893;28;20233;-80
2022/03/17 10:38:43;;;;;;;32.43;28.93;;;;;;;8.70;81.28;101297.50;5034371;28;20199;-81
2022/03/17 10:41:12;;;;;;;39.73;31.77;;;;;;;8.73;83.31;101267.16;5034111;28;20707;-81
2022/03/17 10:43:41;;;;;;;43.90;33.83;;;;;;;8.78;84.62;101243.75;5034351;28;20751;-79
2022/03/17 10:46:09;;;;;;;39.27;32.10;;;;;;;8.84;85.93;101206.41;5009312;28;20226;-80
2022/03/17 10:48:53;;;;;;;40.73;33.07;;;;;;;8.90;86.41;101199.50;5005792;28;20208;-81
2022/03/17 10:51:30;;;;;;;37.70;33.27;;;;;;;8.90;87.95;101167.38;5005092;28;20265;-82
2022/03/17 10:54:02;;;;;;;40.40;34.13;;;;;;;8.93;89.63;101157.81;5004702;28;20554;-81
2022/03/17 10:56:29;;;;;;;44.80;34.90;;;;;;;8.87;88.72;101162.19;5003597;28;20322;-81
2022/03/17 10:58:55;;;;;;;40.47;32.57;;;;;;;8.88;88.73;101195.13;5009282;28;20246;-80
2022/03/17 11:01:35;;;;;;;40.63;34.47;;;;;;;8.97;87.24;101234.22;5010664;28;20206;-81
2022/03/17 11:04:04;;;;;;;41.57;34.50;;;;;;;8.99;86.49;101270.69;5005727;28;20627;-80
2022/03/17 11:06:33;;;;;;;38.73;32.27;;;;;;;8.97;86.27;101301.91;5009943;28;20228;-81
2022/03/17 11:09:01;;;;;;;43.17;34.50;;;;;;;8.93;86.82;101293.22;5015981;28;20269;-81
2022/03/17 11:11:28;;;;;;;48.53;37.90;;;;;;;8.68;88.23;101279.31;5018789;28;20210;-81
2022/03/17 11:13:56;;;;;;;41.03;35.03;;;;;;;8.39;90.48;101250.56;5018931;28;20207;-81
2022/03/17 11:16:25;;;;;;;48.20;38.47;;;;;;;8.39;92.06;101221.09;5018392;28;20907;-81
2022/03/17 11:18:54;;;;;;;50.20;39.60;;;;;;;8.11;93.01;101208.00;5018801;28;20203;-80
2022/03/17 11:21:28;;;;;;;50.87;39.30;;;;;;;7.94;94.08;101195.78;5018625;28;20230;-80
2022/03/17 11:23:59;;;;;;;51.67;36.60;;;;;;;7.79;96.31;101168.84;5007740;28;20281;-80
2022/03/17 11:26:31;;;;;;;40.17;32.80;;;;;;;7.63;97.54;101163.59;5008656;28;20226;-81
2022/03/17 11:29:04;;;;;;;27.40;24.50;;;;;;;7.70;97.45;101183.53;5008775;28;20203;-79